createdAt,value
2019-04-22T00:01:20.613Z,60.70
2019-04-22T00:04:04.863Z,58.70
2019-04-22T00:07:01.363Z,58.10
2019-04-22T00:09:38.841Z,58.30
2019-04-22T00:12:20.805Z,58.60
2019-04-22T00:14:52.487Z,57.20
2019-04-22T00:17:38.681Z,58.00
2019-04-22T00:20:08.739Z,57.30
2019-04-22T00:22:44.853Z,57.90
2019-04-22T00:25:26.505Z,58.40
2019-04-22T00:28:02.638Z,59.40
2019-04-22T00:30:36.054Z,58.80
2019-04-22T00:33:19.125Z,60.60
2019-04-22T00:35:56.058Z,59.60
2019-04-22T00:41:14.151Z,60.20
2019-04-22T00:43:48.159Z,60.40
2019-04-22T00:46:27.599Z,60.40
2019-04-22T00:49:46.731Z,59.90
2019-04-22T00:51:52.415Z,62.00
2019-04-22T00:54:15.748Z,62.20
2019-04-22T00:56:53.967Z,60.80
2019-04-22T00:59:39.769Z,61.30
2019-04-22T01:02:20.934Z,61.00
2019-04-22T01:04:54.882Z,61.80
2019-04-22T01:07:35.569Z,61.90
2019-04-22T01:10:20.207Z,61.70
2019-04-22T01:12:56.753Z,61.30
2019-04-22T01:15:45.295Z,61.90
2019-04-22T01:18:09.347Z,62.90
2019-04-22T01:23:23.770Z,63.00
2019-04-22T01:26:05.051Z,63.50
2019-04-22T01:28:42.219Z,63.10
2019-04-22T01:31:12.370Z,63.40
2019-04-22T01:33:58.513Z,64.30
2019-04-22T01:36:41.502Z,64.40
2019-04-22T01:39:25.482Z,64.50
2019-04-22T01:42:10.416Z,63.60
2019-04-22T01:47:19.923Z,64.40
2019-04-22T01:49:55.506Z,64.20
2019-04-22T01:52:29.151Z,65.80
2019-04-22T01:55:12.264Z,67.40
2019-04-22T01:57:43.285Z,66.10
2019-04-22T02:00:14.000Z,67.10
2019-04-22T02:02:57.294Z,68.40
2019-04-22T02:05:30.052Z,67.30
2019-04-22T02:08:15.041Z,66.10
2019-04-22T02:10:54.820Z,66.20
2019-04-22T02:13:30.812Z,66.40
2019-04-22T02:16:06.992Z,67.20
2019-04-22T02:21:13.720Z,66.30
2019-04-22T02:24:00.639Z,66.20
2019-04-22T02:26:38.576Z,66.70
2019-04-22T02:29:11.046Z,67.00
2019-04-22T02:32:04.910Z,66.90
2019-04-22T02:37:03.224Z,68.30
2019-04-22T02:39:43.123Z,67.00
2019-04-22T02:47:46.473Z,67.60
2019-04-22T02:50:07.321Z,67.70
2019-04-22T02:58:01.880Z,69.80
2019-04-22T03:00:37.648Z,69.90
2019-04-22T03:03:21.048Z,69.20
2019-04-22T03:08:30.061Z,69.70
2019-04-22T03:13:47.390Z,70.80
2019-04-22T03:21:31.326Z,70.60
2019-04-22T03:30:36.489Z,70.70
2019-04-22T03:33:09.249Z,71.10
2019-04-22T03:37:53.220Z,71.80
2019-04-22T03:40:50.425Z,71.80
2019-04-22T03:45:31.496Z,72.10
2019-04-22T03:50:55.067Z,71.50
2019-04-22T03:53:36.130Z,71.90
2019-04-22T03:56:28.647Z,72.30
2019-04-22T03:58:47.938Z,72.40
2019-04-22T04:04:08.995Z,72.70
2019-04-22T04:06:52.542Z,72.60
2019-04-22T04:09:18.448Z,72.50
2019-04-22T04:17:33.232Z,74.30
2019-04-22T04:25:29.662Z,73.50
2019-04-22T04:28:10.658Z,73.70
2019-04-22T04:30:30.165Z,72.90
2019-04-22T04:33:06.169Z,73.20
2019-04-22T04:38:39.007Z,73.10
2019-04-22T04:40:57.457Z,74.30
2019-04-22T04:43:42.081Z,73.70
2019-04-22T04:46:14.176Z,73.10
2019-04-22T04:48:55.737Z,72.60
2019-04-22T04:51:33.331Z,72.80
2019-04-22T04:56:50.913Z,73.00
2019-04-22T05:04:42.132Z,72.40
2019-04-22T05:07:12.739Z,72.20
2019-04-22T05:09:49.859Z,71.90
2019-04-22T05:12:45.354Z,72.50
2019-04-22T05:14:55.060Z,72.50
2019-04-22T05:17:37.430Z,71.80
2019-04-22T05:20:12.907Z,71.20
2019-04-22T05:25:19.062Z,69.90
2019-04-22T05:27:50.950Z,69.30
2019-04-22T05:30:37.523Z,70.30
2019-04-22T05:33:10.719Z,69.90
2019-04-22T05:35:46.365Z,68.90
2019-04-22T05:38:27.114Z,69.40
2019-04-22T05:40:56.373Z,70.40
2019-04-22T05:43:42.563Z,69.80
2019-04-22T05:46:15.740Z,69.80
2019-04-22T05:49:08.191Z,71.60
2019-04-22T05:51:31.416Z,71.10
2019-04-22T05:54:13.125Z,70.00
2019-04-22T05:56:43.025Z,71.20
2019-04-22T05:59:28.903Z,71.00
2019-04-22T06:04:39.651Z,69.00
2019-04-22T06:07:13.781Z,68.10
2019-04-22T06:09:53.414Z,67.80
2019-04-22T06:12:20.929Z,68.70
2019-04-22T06:15:09.684Z,68.80
2019-04-22T06:17:48.988Z,67.20
2019-04-22T06:20:28.610Z,64.80
2019-04-22T06:28:22.194Z,59.00
2019-04-22T06:31:00.893Z,59.60
2019-04-22T06:33:26.134Z,60.60
2019-04-22T06:38:49.522Z,61.70
2019-04-22T06:41:42.267Z,62.70
2019-04-22T06:44:09.338Z,65.60
2019-04-22T06:46:39.636Z,63.80
2019-04-22T06:49:18.838Z,61.70
2019-04-22T06:51:55.801Z,63.20
2019-04-22T06:54:28.273Z,65.10
2019-04-22T06:57:06.143Z,61.40
2019-04-22T06:59:49.645Z,61.00
2019-04-22T07:02:33.274Z,59.80
2019-04-22T07:05:02.190Z,60.70
2019-04-22T07:07:38.251Z,59.50
2019-04-22T07:12:49.067Z,59.70
2019-04-22T07:15:46.816Z,58.40
2019-04-22T07:18:14.674Z,56.70
2019-04-22T07:26:00.264Z,55.60
2019-04-22T07:28:29.423Z,55.10
2019-04-22T07:33:55.510Z,55.10
2019-04-22T07:39:04.496Z,55.30
2019-04-22T07:44:16.639Z,52.10
2019-04-22T07:47:13.964Z,51.30
2019-04-22T07:52:09.816Z,49.60
2019-04-22T07:54:47.959Z,51.80
2019-04-22T07:57:27.773Z,51.90
2019-04-22T08:00:02.891Z,46.90
2019-04-22T08:02:46.705Z,46.20
2019-04-22T08:05:22.862Z,50.00
2019-04-22T08:08:02.658Z,48.70
2019-04-22T08:10:38.679Z,47.30
2019-04-22T08:13:11.742Z,46.80
2019-04-22T08:15:50.294Z,44.50
2019-04-22T08:20:58.482Z,43.40
2019-04-22T08:23:35.476Z,44.90
2019-04-22T08:26:16.802Z,45.10
2019-04-22T08:28:53.380Z,44.10
2019-04-22T08:31:28.686Z,43.30
2019-04-22T08:34:08.171Z,43.90
2019-04-22T08:36:53.984Z,41.70
2019-04-22T08:39:18.803Z,43.50
2019-04-22T08:41:50.898Z,41.50
2019-04-22T08:44:52.201Z,40.20
2019-04-22T08:49:57.175Z,41.80
2019-04-22T08:55:12.290Z,40.60
2019-04-22T08:58:04.905Z,41.20
2019-04-22T09:00:20.303Z,40.90
2019-04-22T09:02:59.518Z,40.10
2019-04-22T09:05:48.616Z,39.80
2019-04-22T09:08:14.274Z,38.80
2019-04-22T09:10:48.999Z,40.30
2019-04-22T09:13:31.529Z,40.50
2019-04-22T09:16:11.756Z,41.30
2019-04-22T09:21:32.638Z,40.20
2019-04-22T09:24:03.992Z,40.30
2019-04-22T09:26:43.703Z,38.70
2019-04-22T09:29:20.829Z,40.10
2019-04-22T09:32:02.877Z,37.70
2019-04-22T09:34:38.237Z,37.30
2019-04-22T09:37:11.914Z,37.70
2019-04-22T09:39:50.823Z,37.20
2019-04-22T09:42:25.889Z,37.40
2019-04-22T09:45:03.991Z,38.10
2019-04-22T09:47:46.844Z,38.50
2019-04-22T09:50:22.253Z,38.30
2019-04-22T09:53:00.138Z,38.60
2019-04-22T09:55:28.404Z,38.40
2019-04-22T09:58:14.640Z,36.00
2019-04-22T10:01:19.061Z,35.40
2019-04-22T10:03:53.457Z,36.70
2019-04-22T10:09:34.422Z,33.50
2019-04-22T10:11:47.083Z,34.80
2019-04-22T10:14:28.975Z,32.40
2019-04-22T10:17:00.133Z,29.30
2019-04-22T10:19:43.927Z,30.70
2019-04-22T10:22:20.001Z,31.10
2019-04-22T10:25:08.687Z,29.90
2019-04-22T10:27:39.792Z,30.90
2019-04-22T10:30:25.477Z,31.50
2019-04-22T10:32:52.433Z,31.60
2019-04-22T10:35:15.589Z,32.20
2019-04-22T10:37:48.071Z,29.00
2019-04-22T10:40:44.761Z,30.20
2019-04-22T10:43:21.105Z,30.10
2019-04-22T10:45:57.795Z,30.50
2019-04-22T10:48:36.601Z,29.70
2019-04-22T10:51:12.711Z,29.50
2019-04-22T10:53:49.353Z,29.60
2019-04-22T10:56:30.646Z,30.30
2019-04-22T10:59:06.800Z,30.50
2019-04-22T11:01:42.746Z,30.80
2019-04-22T11:04:19.351Z,30.00
2019-04-22T11:07:00.852Z,28.70
2019-04-22T11:09:34.094Z,27.30
2019-04-22T11:12:13.850Z,28.90
2019-04-22T11:14:45.755Z,28.00
2019-04-22T11:17:21.780Z,29.00
2019-04-22T11:19:57.543Z,29.50
2019-04-22T11:22:36.587Z,30.10
2019-04-22T11:25:09.987Z,29.70
2019-04-22T11:27:45.399Z,29.20
2019-04-22T11:30:24.279Z,29.20
2019-04-22T11:33:00.340Z,29.70
2019-04-22T11:35:35.769Z,29.40
2019-04-22T11:38:12.893Z,29.40
2019-04-22T11:40:53.421Z,29.60
2019-04-22T11:43:26.154Z,30.50
2019-04-22T11:46:05.097Z,29.50
2019-04-22T11:48:42.200Z,29.30
2019-04-22T11:51:18.263Z,29.10
2019-04-22T11:53:54.759Z,29.00
2019-04-22T11:56:31.290Z,28.70
2019-04-22T11:59:06.794Z,28.10
2019-04-22T12:01:42.644Z,28.20
2019-04-22T12:04:18.162Z,27.60
2019-04-22T12:06:54.035Z,29.70
2019-04-22T12:09:29.949Z,30.00
2019-04-22T12:12:07.449Z,29.70
2019-04-22T12:14:42.931Z,30.00
2019-04-22T12:17:22.259Z,30.20
2019-04-22T12:19:57.976Z,30.60
2019-04-22T12:22:33.989Z,31.20
2019-04-22T12:25:12.470Z,31.10
2019-04-22T12:27:47.703Z,29.50
2019-04-22T12:30:23.670Z,30.10
2019-04-22T12:33:00.161Z,29.90
2019-04-22T12:35:36.854Z,29.70
2019-04-22T12:38:20.325Z,30.10
2019-04-22T12:40:57.384Z,29.10
2019-04-22T12:43:29.908Z,30.00
2019-04-22T12:46:06.030Z,28.70
2019-04-22T12:48:45.409Z,28.30
2019-04-22T12:51:24.958Z,28.80
2019-04-22T12:54:06.723Z,29.20
2019-04-22T12:56:45.996Z,30.00
2019-04-22T12:59:23.682Z,29.50
2019-04-22T13:02:00.607Z,29.20
2019-04-22T13:04:36.231Z,29.00
2019-04-22T13:07:11.804Z,28.30
2019-04-22T13:09:47.355Z,28.10
2019-04-22T13:12:24.822Z,28.90
2019-04-22T13:15:01.496Z,27.50
2019-04-22T13:17:37.944Z,27.40
2019-04-22T13:20:17.962Z,26.60
2019-04-22T13:22:52.798Z,27.60
2019-04-22T13:25:30.319Z,28.30
2019-04-22T13:28:05.255Z,28.40
2019-04-22T13:30:40.876Z,26.30
2019-04-22T13:33:16.805Z,27.10
2019-04-22T13:35:52.249Z,26.50
2019-04-22T13:38:31.050Z,27.30
2019-04-22T13:41:20.483Z,27.10
2019-04-22T13:43:44.713Z,26.00
2019-04-22T13:46:20.677Z,26.50
2019-04-22T13:49:25.589Z,26.90
2019-04-22T13:52:02.398Z,26.50
2019-04-22T13:54:48.416Z,27.10
2019-04-22T13:57:03.450Z,26.40
2019-04-22T13:59:36.210Z,26.40
2019-04-22T14:02:28.490Z,26.10
2019-04-22T14:05:04.545Z,26.30
2019-04-22T14:07:41.104Z,26.00
2019-04-22T14:10:18.359Z,26.00
2019-04-22T14:12:55.114Z,25.90
2019-04-22T14:15:31.864Z,25.80
2019-04-22T14:18:07.673Z,25.70
2019-04-22T14:20:42.964Z,25.60
2019-04-22T14:23:18.363Z,26.10
2019-04-22T14:25:54.770Z,26.60
2019-04-22T14:28:31.311Z,25.90
2019-04-22T14:31:08.463Z,26.20
2019-04-22T14:33:46.544Z,25.80
2019-04-22T14:36:23.453Z,24.10
2019-04-22T14:38:59.748Z,24.80
2019-04-22T14:41:55.052Z,26.00
2019-04-22T14:47:15.906Z,25.40
2019-04-22T14:49:47.463Z,24.60
2019-04-22T14:52:27.667Z,24.40
2019-04-22T14:54:54.290Z,24.80
2019-04-22T14:57:19.223Z,25.20
2019-04-22T14:59:55.789Z,25.10
2019-04-22T15:02:31.959Z,25.80
2019-04-22T15:05:08.163Z,24.90
2019-04-22T15:07:44.579Z,25.40
2019-04-22T15:10:22.093Z,25.40
2019-04-22T15:13:00.382Z,25.40
2019-04-22T15:15:53.408Z,25.70
2019-04-22T15:18:51.686Z,26.30
2019-04-22T15:21:28.912Z,26.00
2019-04-22T15:24:22.925Z,26.10
2019-04-22T15:26:58.922Z,25.60
2019-04-22T15:29:35.655Z,26.00
2019-04-22T15:32:11.707Z,25.40
2019-04-22T15:34:47.132Z,25.20
2019-04-22T15:37:22.500Z,26.40
2019-04-22T15:39:58.566Z,25.80
2019-04-22T15:42:40.188Z,25.50
2019-04-22T15:45:18.794Z,26.00
2019-04-22T15:47:54.027Z,25.60
2019-04-22T15:50:30.936Z,26.60
2019-04-22T15:53:09.641Z,26.60
2019-04-22T15:55:45.049Z,25.80
2019-04-22T15:58:21.791Z,26.70
2019-04-22T16:01:08.766Z,26.80
2019-04-22T16:03:34.409Z,27.20
2019-04-22T16:06:10.176Z,27.60
2019-04-22T16:08:45.797Z,28.40
2019-04-22T16:11:24.177Z,28.70
2019-04-22T16:14:00.253Z,28.70
2019-04-22T16:16:41.030Z,28.30
2019-04-22T16:19:16.995Z,28.00
2019-04-22T16:21:59.300Z,28.50
2019-04-22T16:24:47.933Z,28.90
2019-04-22T16:27:26.309Z,28.80
2019-04-22T16:30:03.751Z,27.90
2019-04-22T16:32:39.160Z,28.40
2019-04-22T16:35:14.668Z,28.00
2019-04-22T16:37:50.688Z,27.60
2019-04-22T16:40:26.959Z,28.10
2019-04-22T16:43:13.579Z,28.40
2019-04-22T16:45:45.420Z,28.20
2019-04-22T16:48:21.939Z,28.30
2019-04-22T16:50:58.471Z,27.90
2019-04-22T16:53:35.021Z,28.50
2019-04-22T16:56:10.977Z,28.70
2019-04-22T16:58:46.546Z,28.00
2019-04-22T17:01:50.464Z,29.10
2019-04-22T17:04:34.548Z,28.60
2019-04-22T17:07:13.914Z,29.20
2019-04-22T17:09:50.039Z,28.80
2019-04-22T17:12:38.675Z,29.50
2019-04-22T17:15:07.756Z,30.00
2019-04-22T17:17:39.227Z,30.10
2019-04-22T17:20:15.463Z,29.90
2019-04-22T17:22:51.579Z,29.50
2019-04-22T17:25:32.111Z,30.40
2019-04-22T17:28:07.790Z,29.60
2019-04-22T17:30:43.809Z,30.70
2019-04-22T17:33:19.099Z,30.80
2019-04-22T17:35:57.185Z,30.80
2019-04-22T17:38:44.425Z,30.60
2019-04-22T17:41:21.979Z,31.20
2019-04-22T17:44:12.242Z,31.60
2019-04-22T17:46:51.029Z,30.00
2019-04-22T17:49:48.218Z,31.40
2019-04-22T17:54:51.732Z,32.10
2019-04-22T17:57:34.463Z,32.60
2019-04-22T18:00:11.286Z,33.60
2019-04-22T18:02:45.721Z,32.80
2019-04-22T18:05:09.473Z,33.70
2019-04-22T18:08:02.710Z,33.20
2019-04-22T18:10:54.272Z,34.20
2019-04-22T18:15:54.788Z,35.40
2019-04-22T18:18:30.175Z,35.10
2019-04-22T18:21:05.097Z,34.30
2019-04-22T18:23:29.286Z,35.50
2019-04-22T18:26:22.772Z,35.60
2019-04-22T18:29:02.755Z,35.70
2019-04-22T18:31:29.560Z,35.80
2019-04-22T18:34:07.726Z,35.80
2019-04-22T18:36:45.652Z,37.50
2019-04-22T18:39:36.915Z,36.70
2019-04-22T18:42:03.438Z,36.90
2019-04-22T18:44:45.510Z,36.90
2019-04-22T18:47:14.498Z,37.60
2019-04-22T18:49:56.686Z,37.50
2019-04-22T18:53:03.282Z,37.70
2019-04-22T18:55:53.287Z,38.40
2019-04-22T18:58:24.605Z,39.20
2019-04-22T19:00:51.308Z,38.60
2019-04-22T19:03:44.723Z,40.00
2019-04-22T19:06:48.970Z,39.80
2019-04-22T19:09:10.556Z,39.70
2019-04-22T19:11:52.179Z,42.00
2019-04-22T19:14:25.309Z,40.50
2019-04-22T19:17:08.252Z,40.40
2019-04-22T19:19:56.130Z,39.80
2019-04-22T19:22:16.276Z,41.60
2019-04-22T19:24:47.338Z,40.50
2019-04-22T19:27:26.806Z,40.70
2019-04-22T19:30:14.300Z,41.20
2019-04-22T19:32:45.242Z,42.00
2019-04-22T19:35:19.311Z,42.20
2019-04-22T19:37:56.590Z,41.60
2019-04-22T19:40:52.822Z,42.20
2019-04-22T19:43:27.395Z,41.70
2019-04-22T19:46:02.228Z,41.70
2019-04-22T19:48:50.110Z,42.80
2019-04-22T19:51:29.219Z,42.10
2019-04-22T19:53:56.275Z,42.70
2019-04-22T19:56:26.912Z,41.60
2019-04-22T19:59:15.024Z,42.40
2019-04-22T20:02:23.581Z,42.00
2019-04-22T20:05:29.705Z,42.50
2019-04-22T20:08:03.178Z,43.40
2019-04-22T20:10:41.293Z,43.00
2019-04-22T20:13:20.329Z,43.40
2019-04-22T20:15:43.307Z,43.70
2019-04-22T20:18:37.289Z,43.40
2019-04-22T20:21:14.296Z,44.40
2019-04-22T20:23:38.177Z,43.70
2019-04-22T20:26:15.676Z,44.10
2019-04-22T20:28:58.966Z,43.90
2019-04-22T20:31:39.548Z,45.00
2019-04-22T20:34:18.688Z,45.80
2019-04-22T20:39:36.000Z,46.10
2019-04-22T20:42:21.317Z,44.10
2019-04-22T20:44:47.271Z,44.60
2019-04-22T20:47:17.715Z,45.30
2019-04-22T20:50:02.267Z,46.20
2019-04-22T20:52:38.486Z,45.40
2019-04-22T20:55:07.773Z,45.50
2019-04-22T20:57:53.074Z,45.40
2019-04-22T21:00:22.393Z,45.60
2019-04-22T21:02:55.255Z,45.20
2019-04-22T21:05:34.470Z,44.10
2019-04-22T21:11:14.440Z,44.30
2019-04-22T21:13:48.188Z,44.70
2019-04-22T21:16:26.789Z,44.30
2019-04-22T21:19:11.108Z,44.50
2019-04-22T21:21:46.675Z,44.20
2019-04-22T21:24:18.145Z,43.70
2019-04-22T21:26:57.056Z,44.10
2019-04-22T21:29:49.242Z,43.60
2019-04-22T21:32:34.284Z,44.00
2019-04-22T21:35:21.495Z,43.40
2019-04-22T21:38:00.488Z,44.40
2019-04-22T21:40:30.500Z,42.90
2019-04-22T21:43:07.241Z,42.90
2019-04-22T21:45:37.703Z,43.10
2019-04-22T21:50:59.585Z,43.20
2019-04-22T21:53:43.591Z,43.80
2019-04-22T21:56:32.921Z,43.50
2019-04-22T21:58:55.990Z,43.10
2019-04-22T22:01:47.495Z,44.10
2019-04-22T22:04:14.852Z,43.40
2019-04-22T22:06:54.851Z,42.90
2019-04-22T22:09:44.368Z,43.00
2019-04-22T22:12:11.945Z,42.60
2019-04-22T22:14:55.762Z,42.40
2019-04-22T22:17:32.620Z,42.40
2019-04-22T22:20:06.206Z,42.70
2019-04-22T22:22:52.574Z,41.80
2019-04-22T22:25:23.869Z,43.20
2019-04-22T22:28:01.825Z,42.50
2019-04-22T22:30:48.456Z,41.80
2019-04-22T22:33:18.761Z,41.90
2019-04-22T22:35:57.406Z,42.10
2019-04-22T22:38:27.125Z,42.10
2019-04-22T22:40:52.011Z,41.80
2019-04-22T22:43:35.345Z,42.50
2019-04-22T22:46:20.336Z,42.50
2019-04-22T22:49:08.190Z,42.20
2019-04-22T22:51:50.275Z,42.90
2019-04-22T22:54:21.453Z,42.90
2019-04-22T22:57:02.954Z,43.70
2019-04-22T22:59:35.231Z,43.00
2019-04-22T23:02:06.030Z,42.80
2019-04-22T23:04:45.896Z,43.40
2019-04-22T23:07:28.987Z,43.00
2019-04-22T23:10:01.683Z,42.80
2019-04-22T23:12:53.857Z,43.10
2019-04-22T23:15:09.134Z,43.60
2019-04-22T23:17:39.005Z,43.60
2019-04-22T23:20:13.571Z,43.00
2019-04-22T23:23:17.156Z,43.30
2019-04-22T23:25:52.735Z,43.20
2019-04-22T23:28:49.642Z,43.60
2019-04-22T23:31:30.827Z,43.80
2019-04-22T23:34:10.388Z,43.90
2019-04-22T23:36:59.025Z,43.80
2019-04-22T23:39:42.254Z,44.40
2019-04-22T23:42:20.895Z,43.90
2019-04-22T23:44:49.319Z,44.80
2019-04-22T23:47:26.160Z,44.50
2019-04-22T23:50:09.342Z,45.30
2019-04-22T23:52:50.843Z,45.70
2019-04-22T23:55:25.962Z,44.80
2019-04-22T23:58:10.669Z,44.80
